Time;durP1;ratioP1;P1;durP2;ratioP2;P2;SDS_P1;SDS_P2;PMS_P1;PMS_P2;Temp;Humidity;BMP_temperature;BMP_pressure;BME280_temperature;BME280_humidity;BME280_pressure;Samples;Min_cycle;Max_cycle;Signal;HPM_P1;HPM_P2
2024/04/18 00:01:01;;;;;;;8.43;4.60;;;5.60;83.00;;;;;;5410128;26;20657;-79
2024/04/18 00:03:27;;;;;;;8.67;4.77;;;5.70;82.70;;;;;;5414885;26;20261;-75
2024/04/18 00:05:52;;;;;;;6.83;4.47;;;5.70;82.40;;;;;;5415945;26;20727;-76
2024/04/18 00:08:18;;;;;;;10.10;4.83;;;5.80;81.90;;;;;;5414169;26;20792;-75
2024/04/18 00:10:45;;;;;;;9.60;4.70;;;5.80;81.40;;;;;;5418928;26;20237;-75
2024/04/18 00:13:10;;;;;;;11.13;5.60;;;5.70;80.90;;;;;;5409968;26;20237;-75
2024/04/18 00:15:37;;;;;;;9.30;4.93;;;5.70;81.10;;;;;;5407336;26;20877;-75
2024/04/18 00:18:03;;;;;;;9.30;4.27;;;5.60;80.90;;;;;;5418386;26;20305;-77
2024/04/18 00:20:29;;;;;;;10.90;4.87;;;5.60;80.80;;;;;;5413349;26;20547;-76
2024/04/18 00:22:55;;;;;;;10.20;4.97;;;5.60;80.80;;;;;;5412108;26;20800;-75
2024/04/18 00:25:20;;;;;;;8.80;4.70;;;5.50;80.90;;;;;;5412975;26;20297;-75
2024/04/18 00:27:46;;;;;;;9.13;5.33;;;5.40;80.90;;;;;;5419145;26;20237;-77
2024/04/18 00:30:11;;;;;;;7.53;4.90;;;5.30;81.10;;;;;;5412125;26;20248;-76
2024/04/18 00:32:37;;;;;;;7.30;4.73;;;5.30;81.50;;;;;;5415169;26;20346;-76
2024/04/18 00:35:03;;;;;;;9.47;4.83;;;5.30;81.80;;;;;;5406629;26;20234;-76
2024/04/18 00:37:28;;;;;;;8.63;5.07;;;5.40;81.90;;;;;;5413457;26;20313;-75
2024/04/18 00:39:54;;;;;;;12.57;5.37;;;5.40;82.10;;;;;;5406515;26;20335;-74
2024/04/18 00:42:19;;;;;;;9.63;5.67;;;5.40;82.10;;;;;;5410514;26;20242;-75
2024/04/18 00:44:45;;;;;;;8.40;4.60;;;5.50;82.10;;;;;;5414140;26;20237;-74
2024/04/18 00:47:13;;;;;;;12.70;4.77;;;5.40;81.80;;;;;;5413158;26;20287;-74
2024/04/18 00:49:39;;;;;;;9.93;4.77;;;5.40;81.80;;;;;;5409806;26;20234;-75
2024/04/18 00:52:06;;;;;;;7.17;4.63;;;5.40;81.80;;;;;;5411297;26;20467;-76
2024/04/18 00:54:32;;;;;;;7.77;4.57;;;5.40;81.70;;;;;;5413559;26;21086;-74
2024/04/18 00:56:57;;;;;;;8.70;5.23;;;5.50;81.90;;;;;;5417116;26;20459;-75
2024/04/18 00:59:23;;;;;;;9.70;5.43;;;5.50;81.50;;;;;;5414731;26;20238;-73
2024/04/18 01:01:49;;;;;;;9.17;5.60;;;5.60;81.70;;;;;;5406593;26;20796;-75
2024/04/18 01:04:15;;;;;;;12.60;5.20;;;5.60;81.40;;;;;;5415515;26;20283;-77
2024/04/18 01:06:41;;;;;;;4.90;3.50;;;5.60;81.50;;;;;;5404778;26;20464;-73
2024/04/18 01:09:07;;;;;;;11.07;4.77;;;5.60;81.40;;;;;;5414369;26;20279;-75
2024/04/18 01:11:33;;;;;;;7.00;4.40;;;5.60;81.20;;;;;;5381251;26;20467;-78
2024/04/18 01:14:05;;;;;;;6.83;4.37;;;5.60;81.10;;;;;;5426176;26;20785;-74
2024/04/18 01:16:31;;;;;;;6.57;4.30;;;5.60;80.90;;;;;;5414604;26;20237;-73
2024/04/18 01:18:56;;;;;;;8.60;4.27;;;5.60;81.10;;;;;;5413631;26;20569;-73
2024/04/18 01:21:22;;;;;;;18.67;2.90;;;5.70;81.10;;;;;;5411091;26;20238;-77
2024/04/18 01:23:48;;;;;;;4.27;3.00;;;5.70;80.50;;;;;;5414098;26;20234;-76
2024/04/18 01:26:16;;;;;;;5.80;2.90;;;5.70;80.20;;;;;;5412048;26;20288;-74
2024/04/18 01:28:41;;;;;;;4.43;2.77;;;5.70;80.20;;;;;;5408488;26;20238;-74
2024/04/18 01:31:07;;;;;;;4.47;2.50;;;5.70;80.50;;;;;;5398809;26;20513;-76
2024/04/18 01:33:32;;;;;;;4.70;2.70;;;5.70;79.90;;;;;;5411356;26;20334;-79
2024/04/18 01:35:59;;;;;;;5.40;2.60;;;5.60;79.60;;;;;;5403631;26;20349;-76
2024/04/18 01:38:24;;;;;;;4.40;2.20;;;5.50;79.90;;;;;;5414867;26;20699;-75
2024/04/18 01:40:50;;;;;;;5.00;2.93;;;5.50;80.60;;;;;;5414941;26;20275;-77
2024/04/18 01:43:15;;;;;;;4.80;2.80;;;5.40;81.10;;;;;;5411162;26;20671;-77
2024/04/18 01:45:41;;;;;;;3.63;2.20;;;5.50;81.20;;;;;;5409939;26;20296;-74
2024/04/18 01:48:07;;;;;;;3.77;2.00;;;5.50;81.20;;;;;;5408320;26;20249;-74
2024/04/18 01:50:32;;;;;;;3.33;2.20;;;5.60;81.10;;;;;;5409505;26;20233;-78
2024/04/18 01:52:58;;;;;;;3.73;2.17;;;5.70;80.50;;;;;;5403003;26;20253;-74
2024/04/18 01:55:24;;;;;;;4.80;2.63;;;5.80;79.90;;;;;;5414643;26;20230;-75
2024/04/18 01:57:49;;;;;;;4.23;2.67;;;5.80;79.90;;;;;;5408919;26;20475;-75
2024/04/18 02:00:15;;;;;;;5.53;3.10;;;5.90;80.60;;;;;;5414739;26;20234;-74
2024/04/18 02:02:41;;;;;;;4.47;2.70;;;5.90;80.80;;;;;;5412444;26;20238;-75
2024/04/18 02:05:06;;;;;;;5.30;3.30;;;5.90;81.20;;;;;;5420763;26;20330;-77
2024/04/18 02:07:32;;;;;;;4.23;2.83;;;6.00;81.10;;;;;;5422086;26;20230;-74
2024/04/18 02:09:57;;;;;;;7.37;3.30;;;6.10;81.20;;;;;;5428097;26;20288;-74
2024/04/18 02:12:23;;;;;;;4.40;3.00;;;6.10;81.20;;;;;;5413195;26;20275;-74
2024/04/18 02:14:48;;;;;;;3.80;2.50;;;6.10;81.20;;;;;;5414910;26;20245;-77
2024/04/18 02:17:14;;;;;;;8.93;3.63;;;6.10;81.40;;;;;;5414110;26;20822;-76
2024/04/18 02:19:39;;;;;;;4.97;2.97;;;6.10;81.40;;;;;;5413275;26;20284;-75
2024/04/18 02:22:05;;;;;;;5.23;3.17;;;6.00;81.40;;;;;;5411406;26;20245;-75
2024/04/18 02:24:34;;;;;;;3.60;2.70;;;6.00;81.50;;;;;;5413845;26;20291;-73
2024/04/18 02:27:00;;;;;;;4.70;3.00;;;6.10;81.70;;;;;;5408856;26;20257;-75
2024/04/18 02:29:25;;;;;;;5.97;3.20;;;6.10;81.70;;;;;;5415623;26;20596;-73
2024/04/18 02:31:51;;;;;;;5.67;2.77;;;6.10;81.70;;;;;;5413678;26;20241;-74
2024/04/18 02:34:17;;;;;;;6.80;2.90;;;6.20;81.70;;;;;;5415691;26;20785;-76
2024/04/18 02:36:43;;;;;;;4.80;2.90;;;6.20;81.10;;;;;;5415877;26;20381;-76
2024/04/18 02:39:08;;;;;;;8.93;3.07;;;6.20;81.10;;;;;;5418079;26;20463;-77
2024/04/18 02:41:37;;;;;;;4.83;2.87;;;6.20;81.20;;;;;;5413437;26;20730;-77
2024/04/18 02:44:03;;;;;;;5.00;3.17;;;6.30;81.10;;;;;;5418342;26;20238;-76
2024/04/18 02:46:29;;;;;;;4.70;2.97;;;6.20;80.80;;;;;;5413937;26;20524;-75
2024/04/18 02:48:54;;;;;;;3.57;2.50;;;6.10;80.80;;;;;;5422314;26;20241;-74
2024/04/18 02:51:20;;;;;;;4.70;2.93;;;5.70;80.30;;;;;;5418834;26;20284;-75
2024/04/18 02:53:45;;;;;;;5.53;2.90;;;5.70;80.30;;;;;;5417737;26;20288;-76
2024/04/18 02:56:11;;;;;;;5.70;2.87;;;5.60;80.80;;;;;;5421783;26;20333;-77
2024/04/18 02:58:36;;;;;;;4.00;2.73;;;5.60;81.20;;;;;;5423245;26;20280;-75
2024/04/18 03:01:03;;;;;;;6.20;3.30;;;5.70;80.20;;;;;;5422694;26;20233;-76
2024/04/18 03:03:29;;;;;;;5.27;3.10;;;5.60;80.20;;;;;;5417025;26;20677;-76
2024/04/18 03:06:02;;;;;;;5.47;3.10;;;5.40;80.50;;;;;;5411483;26;20583;-74
2024/04/18 03:08:28;;;;;;;5.23;3.37;;;5.40;81.10;;;;;;5412894;26;20241;-73
2024/04/18 03:10:53;;;;;;;5.13;2.93;;;5.40;81.20;;;;;;5412364;26;20456;-75
2024/04/18 03:13:19;;;;;;;9.53;4.33;;;5.30;81.20;;;;;;5410741;26;20313;-75
2024/04/18 03:15:45;;;;;;;3.93;2.60;;;5.30;81.70;;;;;;5411450;26;20249;-74
2024/04/18 03:18:11;;;;;;;4.60;3.03;;;5.40;81.50;;;;;;5413245;26;20241;-74
2024/04/18 03:20:38;;;;;;;7.13;3.70;;;5.40;81.70;;;;;;5414457;26;20945;-75
2024/04/18 03:23:03;;;;;;;6.80;3.37;;;5.30;81.90;;;;;;5409879;26;20559;-74
2024/04/18 03:25:30;;;;;;;4.90;3.00;;;5.30;81.80;;;;;;5414163;26;20474;-76
2024/04/18 03:27:55;;;;;;;6.27;4.10;;;5.30;81.90;;;;;;5413062;26;20400;-74
2024/04/18 03:30:21;;;;;;;8.57;3.97;;;5.30;82.10;;;;;;5412271;26;20549;-76
2024/04/18 03:32:46;;;;;;;8.57;3.83;;;5.30;82.10;;;;;;5408671;26;20253;-75
2024/04/18 03:35:12;;;;;;;4.17;3.10;;;5.20;81.80;;;;;;5412211;26;20267;-74
2024/04/18 03:37:38;;;;;;;7.10;3.60;;;5.10;81.90;;;;;;5412748;26;20245;-75
2024/04/18 03:40:05;;;;;;;8.07;3.90;;;5.10;82.40;;;;;;5412127;26;20863;-77
2024/04/18 03:42:30;;;;;;;7.57;4.03;;;5.20;82.70;;;;;;5410281;26;20783;-74
2024/04/18 03:44:57;;;;;;;6.10;3.80;;;5.30;82.70;;;;;;5412575;26;20467;-75
2024/04/18 03:47:23;;;;;;;8.13;3.37;;;5.30;82.40;;;;;;5411759;26;20310;-75
2024/04/18 03:49:48;;;;;;;6.23;3.80;;;5.20;82.10;;;;;;5415941;26;20475;-74
2024/04/18 03:52:14;;;;;;;5.87;3.30;;;5.20;82.40;;;;;;5412460;26;20517;-77
2024/04/18 03:54:40;;;;;;;6.50;4.00;;;5.20;82.70;;;;;;5416113;26;20287;-76
2024/04/18 03:57:06;;;;;;;7.00;3.63;;;5.20;83.10;;;;;;5416876;26;20596;-75
2024/04/18 03:59:31;;;;;;;9.43;5.43;;;5.20;83.10;;;;;;5417089;26;20566;-75
2024/04/18 04:01:57;;;;;;;10.83;6.00;;;5.20;83.40;;;;;;5413066;26;20241;-74
2024/04/18 04:04:22;;;;;;;11.40;6.50;;;5.10;83.30;;;;;;5406942;26;20331;-74
2024/04/18 04:06:48;;;;;;;10.27;5.90;;;5.10;83.30;;;;;;5425007;26;20734;-74
2024/04/18 04:09:14;;;;;;;12.10;6.67;;;5.10;83.30;;;;;;5432561;26;20229;-74
2024/04/18 04:11:39;;;;;;;10.53;6.77;;;5.10;83.40;;;;;;5431402;26;20755;-75
2024/04/18 04:14:07;;;;;;;17.70;6.03;;;5.20;83.30;;;;;;5431338;26;20237;-73
2024/04/18 04:16:32;;;;;;;12.43;6.37;;;5.20;83.30;;;;;;5424437;26;20305;-77
2024/04/18 04:18:58;;;;;;;14.00;6.70;;;5.20;83.10;;;;;;5425680;26;20459;-77
2024/04/18 04:21:24;;;;;;;11.20;5.47;;;5.20;83.10;;;;;;5432135;26;20258;-76
2024/04/18 04:23:49;;;;;;;9.27;6.40;;;5.20;82.80;;;;;;5427575;26;20242;-76
2024/04/18 04:26:15;;;;;;;11.13;6.10;;;5.20;82.50;;;;;;5399514;26;20605;-77
2024/04/18 04:28:41;;;;;;;12.20;6.87;;;5.20;82.50;;;;;;5432359;26;20272;-74
2024/04/18 04:31:06;;;;;;;13.10;7.20;;;5.20;82.70;;;;;;5430110;26;20283;-77
2024/04/18 04:33:32;;;;;;;10.70;6.60;;;5.10;82.40;;;;;;5432217;26;20276;-76
2024/04/18 04:35:59;;;;;;;13.80;7.60;;;5.10;82.50;;;;;;5426649;26;20278;-75
2024/04/18 04:38:24;;;;;;;13.83;7.10;;;5.20;82.20;;;;;;5428947;26;20467;-74
2024/04/18 04:40:50;;;;;;;12.07;6.90;;;5.10;82.10;;;;;;5428484;26;20521;-73
2024/04/18 04:43:16;;;;;;;12.07;6.00;;;5.30;82.50;;;;;;5426769;26;20242;-75
2024/04/18 04:45:41;;;;;;;11.00;6.77;;;5.20;82.50;;;;;;5428822;26;20234;-74
2024/04/18 04:48:07;;;;;;;11.37;6.57;;;5.20;82.50;;;;;;5428133;26;20249;-76
2024/04/18 04:50:33;;;;;;;12.00;7.40;;;5.10;82.50;;;;;;5413920;26;20242;-77
2024/04/18 04:52:58;;;;;;;14.70;8.90;;;5.20;82.70;;;;;;5412470;26;20255;-75
2024/04/18 04:55:24;;;;;;;17.00;9.23;;;5.20;82.80;;;;;;5420115;26;20241;-77
2024/04/18 04:57:50;;;;;;;15.87;8.70;;;5.30;83.30;;;;;;5417596;26;20246;-75
2024/04/18 05:00:15;;;;;;;14.87;7.87;;;5.30;83.40;;;;;;5410013;26;20239;-74
2024/04/18 05:02:41;;;;;;;14.40;7.00;;;5.40;83.40;;;;;;5412473;26;20591;-75
2024/04/18 05:05:08;;;;;;;13.63;7.27;;;5.30;83.10;;;;;;5409776;26;20623;-75
2024/04/18 05:07:34;;;;;;;13.67;7.90;;;5.20;83.10;;;;;;5412354;26;20221;-78
2024/04/18 05:09:59;;;;;;;16.60;8.03;;;5.20;83.40;;;;;;5421676;26;20516;-75
2024/04/18 05:12:25;;;;;;;15.30;7.90;;;5.20;83.60;;;;;;5412213;26;20302;-76
2024/04/18 05:14:50;;;;;;;14.67;8.10;;;5.30;83.80;;;;;;5414140;26;20297;-76
2024/04/18 05:17:16;;;;;;;15.80;8.20;;;5.40;83.70;;;;;;5411788;26;20266;-77
2024/04/18 05:19:42;;;;;;;13.00;6.97;;;5.40;83.70;;;;;;5414901;26;20245;-74
2024/04/18 05:22:07;;;;;;;14.63;7.57;;;5.40;83.30;;;;;;5384967;26;20264;-76
2024/04/18 05:24:33;;;;;;;15.20;7.70;;;5.30;83.00;;;;;;5382162;26;20241;-77
2024/04/18 05:26:59;;;;;;;13.37;7.93;;;5.40;83.10;;;;;;5415458;26;20233;-75
2024/04/18 05:32:09;;;;;;;14.57;9.00;;;5.50;83.30;;;;;;5411332;26;20403;-75
2024/04/18 05:34:35;;;;;;;13.57;8.50;;;5.40;83.30;;;;;;5418742;26;20824;-76
2024/04/18 05:37:00;;;;;;;17.00;9.47;;;5.40;83.30;;;;;;5404906;26;20245;-73
2024/04/18 05:39:26;;;;;;;14.50;8.10;;;5.40;83.10;;;;;;5407548;26;20275;-74
2024/04/18 05:41:51;;;;;;;15.90;8.30;;;5.40;83.30;;;;;;5410250;26;20246;-74
2024/04/18 05:44:17;;;;;;;14.80;8.10;;;5.40;83.10;;;;;;5414318;26;20280;-76
2024/04/18 05:46:43;;;;;;;13.87;7.73;;;5.50;83.30;;;;;;5375120;26;20284;-75
2024/04/18 05:49:08;;;;;;;17.03;8.23;;;5.70;83.60;;;;;;5414547;26;20502;-76
2024/04/18 05:51:34;;;;;;;11.60;7.50;;;5.70;83.30;;;;;;5413551;26;20249;-79
2024/04/18 05:54:00;;;;;;;13.43;7.00;;;5.60;82.20;;;;;;5415183;26;20233;-76
2024/04/18 05:56:25;;;;;;;12.00;6.90;;;5.50;81.70;;;;;;5418541;26;20780;-77
2024/04/18 05:58:52;;;;;;;14.33;7.83;;;5.60;81.70;;;;;;5412706;26;20276;-77
2024/04/18 06:01:18;;;;;;;13.80;8.40;;;5.60;81.50;;;;;;5403098;26;20288;-74
2024/04/18 06:03:43;;;;;;;18.33;8.10;;;5.60;81.50;;;;;;5414310;26;20503;-74
2024/04/18 06:06:09;;;;;;;15.90;7.97;;;5.70;81.90;;;;;;5401113;26;20293;-75
2024/04/18 06:08:34;;;;;;;17.67;8.10;;;5.70;82.10;;;;;;5400931;26;20235;-75
2024/04/18 06:11:01;;;;;;;17.10;8.57;;;5.70;82.10;;;;;;5413977;26;20847;-78
2024/04/18 06:13:27;;;;;;;15.33;9.33;;;5.80;82.20;;;;;;5414201;26;20535;-75
2024/04/18 06:15:53;;;;;;;18.20;9.30;;;5.80;82.10;;;;;;5415246;26;20233;-76
2024/04/18 06:18:19;;;;;;;14.70;8.50;;;5.80;81.90;;;;;;5414189;26;20584;-78
2024/04/18 06:20:46;;;;;;;16.60;8.53;;;5.80;81.90;;;;;;5411249;26;20319;-77
2024/04/18 06:23:13;;;;;;;20.17;9.90;;;5.80;81.80;;;;;;5412523;26;20242;-75
2024/04/18 06:25:39;;;;;;;16.10;9.03;;;5.70;82.20;;;;;;5420219;26;20577;-75
2024/04/18 06:28:08;;;;;;;12.97;8.10;;;5.70;82.20;;;;;;5419372;26;20522;-77
2024/04/18 06:30:34;;;;;;;18.13;10.20;;;5.80;82.10;;;;;;5418063;26;21350;-76
2024/04/18 06:32:59;;;;;;;18.10;9.27;;;5.90;82.10;;;;;;5407611;26;20523;-77
2024/04/18 06:35:25;;;;;;;20.07;9.33;;;5.90;81.90;;;;;;5407571;26;20268;-74
2024/04/18 06:37:51;;;;;;;17.60;10.30;;;5.90;82.10;;;;;;5414652;26;20277;-74
2024/04/18 06:40:19;;;;;;;18.90;8.50;;;5.90;82.20;;;;;;5399969;26;20230;-73
2024/04/18 06:42:45;;;;;;;15.60;9.20;;;6.00;82.40;;;;;;5408228;26;20738;-74
2024/04/18 06:45:10;;;;;;;17.03;9.10;;;6.00;82.10;;;;;;5408242;26;20641;-75
2024/04/18 06:47:36;;;;;;;17.37;9.43;;;6.00;82.20;;;;;;5414297;26;20233;-76
2024/04/18 06:50:01;;;;;;;14.17;8.67;;;6.00;82.50;;;;;;5413735;26;20245;-73
2024/04/18 06:52:29;;;;;;;13.77;8.10;;;6.00;82.40;;;;;;5402635;26;20743;-75
2024/04/18 06:54:54;;;;;;;13.23;8.17;;;5.90;81.90;;;;;;5417411;26;20245;-74
2024/04/18 06:57:20;;;;;;;15.60;8.53;;;5.90;81.80;;;;;;5412751;26;20589;-74
2024/04/18 06:59:45;;;;;;;12.50;7.60;;;5.90;81.80;;;;;;5402426;26;20716;-75
2024/04/18 07:02:11;;;;;;;15.43;8.27;;;5.90;81.80;;;;;;5407182;26;20249;-73
2024/04/18 07:04:38;;;;;;;19.20;9.20;;;6.00;81.90;;;;;;5413424;26;20249;-75
2024/04/18 07:07:06;;;;;;;16.90;9.20;;;5.90;82.20;;;;;;5412310;26;20230;-76
2024/04/18 07:09:32;;;;;;;13.70;8.67;;;5.70;82.40;;;;;;5380721;26;20463;-76
2024/04/18 07:12:00;;;;;;;13.17;8.33;;;5.80;82.80;;;;;;5401760;26;20518;-77
2024/04/18 07:14:25;;;;;;;11.90;6.87;;;5.90;83.00;;;;;;5413830;26;20238;-76
2024/04/18 07:16:51;;;;;;;11.83;6.43;;;5.80;82.50;;;;;;5413956;26;20451;-75
2024/04/18 07:19:16;;;;;;;11.27;7.40;;;6.00;82.70;;;;;;5415758;26;20578;-75
2024/04/18 07:21:42;;;;;;;10.63;6.40;;;6.00;82.10;;;;;;5410482;26;20279;-75
2024/04/18 07:24:07;;;;;;;9.70;6.30;;;6.20;81.90;;;;;;5417345;26;20230;-76
2024/04/18 07:26:33;;;;;;;10.27;5.43;;;6.30;81.50;;;;;;5416403;26;20284;-76
2024/04/18 07:28:59;;;;;;;7.13;4.67;;;6.20;80.30;;;;;;5419684;26;20245;-75
2024/04/18 07:31:24;;;;;;;10.73;5.87;;;6.40;80.20;;;;;;5414885;26;20287;-75
2024/04/18 07:33:50;;;;;;;10.60;6.07;;;6.40;79.70;;;;;;5414390;26;20237;-76
2024/04/18 07:36:15;;;;;;;11.33;6.63;;;6.50;79.60;;;;;;5408447;26;20276;-76
2024/04/18 07:38:41;;;;;;;12.63;6.93;;;6.30;79.70;;;;;;5415165;26;20272;-76
2024/04/18 07:41:06;;;;;;;12.17;6.93;;;6.30;79.70;;;;;;5416054;26;20578;-75
2024/04/18 07:43:32;;;;;;;11.33;7.73;;;6.40;79.90;;;;;;5412609;26;20311;-75
2024/04/18 07:45:58;;;;;;;10.00;6.80;;;6.30;79.60;;;;;;5405441;26;20221;-76
2024/04/18 07:48:23;;;;;;;14.90;7.13;;;6.10;79.90;;;;;;5407198;26;20249;-75
2024/04/18 07:50:49;;;;;;;10.50;6.77;;;5.90;80.50;;;;;;5404706;26;20241;-76
2024/04/18 07:53:14;;;;;;;11.33;6.00;;;5.90;80.80;;;;;;5407710;26;20249;-78
2024/04/18 07:55:41;;;;;;;11.37;6.03;;;5.90;80.90;;;;;;5411709;26;20334;-76
2024/04/18 07:58:06;;;;;;;10.50;6.70;;;6.00;80.80;;;;;;5412835;26;20343;-76
2024/04/18 08:00:33;;;;;;;11.27;6.40;;;6.10;80.20;;;;;;5401147;26;20469;-76
2024/04/18 08:02:59;;;;;;;10.00;6.60;;;6.20;79.60;;;;;;5403617;26;20284;-76
2024/04/18 08:05:24;;;;;;;12.03;6.63;;;6.20;79.70;;;;;;5409508;26;20463;-74
2024/04/18 08:07:50;;;;;;;15.10;7.80;;;6.40;79.60;;;;;;5403724;26;20532;-76
2024/04/18 08:10:16;;;;;;;11.73;7.10;;;6.40;79.00;;;;;;5413739;26;20229;-76
2024/04/18 08:12:41;;;;;;;13.13;7.70;;;6.70;79.20;;;;;;5403926;26;20325;-75
2024/04/18 08:15:07;;;;;;;15.60;8.00;;;6.80;78.10;;;;;;5407019;26;20826;-74
2024/04/18 08:17:33;;;;;;;17.27;6.87;;;6.70;78.00;;;;;;5410312;26;20275;-77
2024/04/18 08:19:58;;;;;;;14.63;7.90;;;6.80;78.70;;;;;;5409689;26;20512;-76
2024/04/18 08:22:24;;;;;;;12.43;7.17;;;6.80;79.50;;;;;;5407004;26;20253;-75
2024/04/18 08:24:50;;;;;;;14.17;8.00;;;6.50;79.30;;;;;;5408940;26;20226;-75
2024/04/18 08:27:16;;;;;;;13.97;8.07;;;6.40;80.20;;;;;;5409779;26;20984;-75
2024/04/18 08:29:41;;;;;;;16.90;8.60;;;6.40;80.60;;;;;;5413014;26;20230;-76
2024/04/18 08:32:07;;;;;;;13.07;8.20;;;6.40;79.90;;;;;;5410369;26;20305;-74
2024/04/18 08:34:35;;;;;;;11.40;6.70;;;6.50;79.60;;;;;;5413896;26;20280;-78
2024/04/18 08:37:01;;;;;;;11.20;5.50;;;6.50;79.60;;;;;;5402494;26;20235;-75
2024/04/18 08:39:26;;;;;;;9.53;6.00;;;6.20;80.20;;;;;;5413987;26;20520;-76
2024/04/18 08:41:56;;;;;;;10.00;5.80;;;5.90;81.40;;;;;;5414286;26;20288;-77
2024/04/18 08:44:21;;;;;;;7.57;5.00;;;6.00;82.50;;;;;;5418353;26;20296;-74
2024/04/18 08:46:48;;;;;;;10.60;6.13;;;5.90;82.50;;;;;;5416115;26;20850;-76
2024/04/18 08:49:15;;;;;;;10.97;5.20;;;6.00;82.80;;;;;;5411312;26;20678;-76
2024/04/18 08:51:41;;;;;;;10.00;5.90;;;6.10;83.00;;;;;;5411995;26;20538;-76
2024/04/18 08:54:07;;;;;;;13.97;6.73;;;6.20;82.10;;;;;;5415605;26;20520;-77
2024/04/18 08:56:34;;;;;;;14.03;6.00;;;6.20;81.70;;;;;;5416757;26;20518;-76
2024/04/18 08:59:00;;;;;;;9.67;5.83;;;6.20;81.70;;;;;;5418063;26;21156;-75
2024/04/18 09:01:26;;;;;;;13.30;7.17;;;6.20;81.50;;;;;;5416500;26;20493;-74
2024/04/18 09:03:55;;;;;;;13.90;6.90;;;6.30;81.50;;;;;;5416059;26;20451;-75
2024/04/18 09:06:21;;;;;;;12.47;5.90;;;6.30;81.10;;;;;;5415691;26;20245;-75
2024/04/18 09:08:51;;;;;;;10.50;5.70;;;6.40;80.90;;;;;;5417927;26;20517;-75
2024/04/18 09:11:17;;;;;;;10.20;5.60;;;6.40;80.50;;;;;;5408895;26;20237;-74
2024/04/18 09:13:43;;;;;;;11.17;6.50;;;6.40;80.90;;;;;;5417709;26;20513;-76
2024/04/18 09:16:09;;;;;;;8.77;5.80;;;6.50;80.30;;;;;;5420886;26;20350;-75
2024/04/18 09:18:35;;;;;;;9.90;6.23;;;6.70;80.30;;;;;;5409897;26;20472;-77
2024/04/18 09:21:01;;;;;;;8.07;5.20;;;6.90;79.50;;;;;;5422744;26;20245;-76
2024/04/18 09:23:30;;;;;;;9.60;5.77;;;7.00;79.30;;;;;;5418323;26;20270;-77
2024/04/18 09:25:55;;;;;;;7.63;5.67;;;7.20;79.00;;;;;;5415962;26;20482;-76
2024/04/18 09:28:21;;;;;;;9.33;5.80;;;7.30;78.40;;;;;;5414512;26;20810;-75
2024/04/18 09:30:52;;;;;;;9.50;6.10;;;7.40;77.40;;;;;;5412275;26;20275;-75
2024/04/18 09:33:20;;;;;;;12.90;6.53;;;7.20;76.70;;;;;;5410361;26;20238;-74
2024/04/18 09:35:48;;;;;;;9.47;5.70;;;7.30;77.00;;;;;;5413810;26;20467;-75
2024/04/18 09:38:17;;;;;;;11.17;6.80;;;7.20;76.70;;;;;;5409424;26;20461;-76
2024/04/18 09:41:11;;;;;;;11.40;6.53;;;7.30;77.10;;;;;;5413390;26;20858;-77
2024/04/18 09:43:58;;;;;;;8.37;6.20;;;7.40;75.80;;;;;;5411377;26;20544;-74
2024/04/18 09:46:25;;;;;;;10.50;5.80;;;7.40;75.80;;;;;;5404616;26;20535;-76
2024/04/18 09:48:52;;;;;;;9.20;5.73;;;7.60;75.90;;;;;;5410439;26;20536;-74
2024/04/18 09:51:19;;;;;;;14.87;5.93;;;7.80;73.60;;;;;;5404584;26;21074;-76
2024/04/18 09:53:46;;;;;;;12.43;5.67;;;8.00;73.30;;;;;;5412408;26;20471;-76
2024/04/18 09:56:13;;;;;;;10.77;6.17;;;8.40;72.30;;;;;;5413914;26;20538;-75
2024/04/18 09:58:40;;;;;;;9.30;5.73;;;8.50;69.40;;;;;;5413458;26;20475;-75
2024/04/18 10:01:06;;;;;;;7.20;5.17;;;8.70;69.50;;;;;;5409479;26;20557;-77
2024/04/18 10:03:31;;;;;;;9.27;5.60;;;8.80;69.50;;;;;;5407552;26;20512;-76
2024/04/18 10:06:05;;;;;;;9.80;6.50;;;8.70;68.60;;;;;;5412003;26;20471;-74
2024/04/18 10:08:35;;;;;;;9.67;5.90;;;8.90;69.20;;;;;;5406467;26;20257;-76
2024/04/18 10:11:02;;;;;;;8.23;5.30;;;9.10;68.60;;;;;;5406882;26;20529;-77
2024/04/18 10:13:28;;;;;;;9.13;5.30;;;8.90;67.60;;;;;;5412185;26;20500;-75
2024/04/18 10:16:09;;;;;;;10.50;5.83;;;8.80;67.30;;;;;;5412577;26;20529;-75
2024/04/18 10:18:35;;;;;;;7.33;3.33;;;8.40;67.90;;;;;;5413627;26;20865;-74
2024/04/18 10:21:16;;;;;;;3.63;2.63;;;7.50;70.70;;;;;;5406324;26;20568;-76
2024/04/18 10:23:52;;;;;;;4.93;3.20;;;6.30;76.20;;;;;;5407097;26;21066;-77
2024/04/18 10:26:19;;;;;;;6.37;3.00;;;5.90;78.70;;;;;;5407431;26;20574;-76
2024/04/18 10:28:46;;;;;;;4.93;2.83;;;5.70;80.50;;;;;;5413328;26;20524;-74
2024/04/18 10:31:13;;;;;;;6.30;4.17;;;5.30;82.80;;;;;;5406914;26;20828;-75
2024/04/18 10:33:39;;;;;;;5.70;3.40;;;5.20;83.70;;;;;;5413002;26;20452;-74
2024/04/18 10:36:09;;;;;;;6.00;3.83;;;5.00;84.40;;;;;;5413853;26;20471;-74
2024/04/18 10:38:40;;;;;;;6.37;3.93;;;5.00;85.70;;;;;;5398094;26;20611;-75
2024/04/18 10:41:08;;;;;;;7.40;4.40;;;5.10;85.90;;;;;;5411080;26;20839;-75
2024/04/18 10:43:35;;;;;;;10.97;4.60;;;5.20;85.90;;;;;;5408712;26;20597;-76
2024/04/18 10:46:06;;;;;;;8.83;4.73;;;5.30;85.70;;;;;;5408213;26;20585;-75
2024/04/18 10:48:36;;;;;;;10.47;4.60;;;5.40;85.70;;;;;;5412457;26;20463;-74
2024/04/18 10:51:02;;;;;;;8.33;5.30;;;5.50;85.90;;;;;;5399821;26;20554;-77
2024/04/18 10:53:28;;;;;;;7.50;4.77;;;5.50;85.70;;;;;;5378434;26;20599;-75
2024/04/18 10:55:54;;;;;;;7.17;4.03;;;5.70;85.30;;;;;;5411329;26;20475;-75
2024/04/18 10:58:20;;;;;;;6.20;3.63;;;5.70;85.30;;;;;;5413569;26;20467;-74
2024/04/18 11:00:47;;;;;;;5.00;3.27;;;5.80;84.90;;;;;;5402942;26;20471;-76
2024/04/18 11:03:13;;;;;;;4.10;2.80;;;5.70;83.10;;;;;;5409614;26;20479;-75
2024/04/18 11:05:40;;;;;;;6.83;3.30;;;5.60;83.40;;;;;;5411113;26;20512;-76
2024/04/18 11:08:07;;;;;;;4.97;3.00;;;5.60;83.40;;;;;;5413003;26;20459;-74
2024/04/18 11:10:34;;;;;;;12.93;4.10;;;5.70;83.70;;;;;;5411838;26;20487;-77
2024/04/18 11:13:01;;;;;;;7.00;4.10;;;5.90;84.30;;;;;;5407543;26;20526;-75
2024/04/18 11:15:28;;;;;;;7.13;3.97;;;6.00;84.10;;;;;;5413577;26;20463;-75
2024/04/18 11:17:54;;;;;;;10.43;4.80;;;6.00;83.10;;;;;;5403661;26;20465;-74
2024/04/18 11:20:19;;;;;;;10.27;4.33;;;6.30;84.00;;;;;;5413477;26;20520;-75
2024/04/18 11:22:45;;;;;;;9.60;4.67;;;6.80;83.40;;;;;;5408715;26;20296;-74
2024/04/18 11:25:11;;;;;;;11.07;3.70;;;7.10;83.10;;;;;;5406528;26;20246;-74
2024/04/18 11:27:39;;;;;;;7.77;5.20;;;7.80;83.00;;;;;;5414390;26;20624;-76
2024/04/18 11:30:06;;;;;;;8.93;4.83;;;8.20;79.00;;;;;;5402773;26;20238;-76
2024/04/18 11:32:32;;;;;;;8.30;5.57;;;8.50;78.10;;;;;;5403205;26;20535;-74
2024/04/18 11:34:58;;;;;;;8.50;5.33;;;8.90;76.20;;;;;;5412601;26;20512;-75
2024/04/18 11:37:24;;;;;;;8.73;5.13;;;9.50;75.90;;;;;;5412275;26;20475;-74
2024/04/18 11:39:50;;;;;;;10.70;5.77;;;9.90;71.70;;;;;;5408899;26;20533;-76
2024/04/18 11:42:15;;;;;;;7.77;4.87;;;10.00;72.30;;;;;;5379104;26;20552;-76
2024/04/18 11:44:42;;;;;;;11.90;6.60;;;10.20;71.60;;;;;;5412317;26;20233;-76
2024/04/18 11:47:07;;;;;;;12.43;6.10;;;10.20;69.50;;;;;;5413435;26;20369;-75
2024/04/18 11:49:33;;;;;;;9.47;5.83;;;10.10;69.50;;;;;;5411251;26;21153;-75
2024/04/18 11:51:58;;;;;;;8.90;6.00;;;10.00;70.10;;;;;;5405709;26;20281;-76
2024/04/18 11:54:24;;;;;;;11.23;6.00;;;9.80;70.40;;;;;;5413630;26;20275;-74
2024/04/18 11:56:50;;;;;;;11.63;6.17;;;9.00;70.10;;;;;;5414991;26;20229;-73
2024/04/18 11:59:16;;;;;;;9.97;5.70;;;7.70;76.40;;;;;;5414044;26;21022;-74
2024/04/18 12:01:42;;;;;;;9.97;4.70;;;6.80;80.60;;;;;;5402417;26;20249;-73
2024/04/18 12:04:10;;;;;;;8.90;4.33;;;6.50;81.20;;;;;;5408856;26;20479;-74
2024/04/18 12:06:36;;;;;;;4.63;3.17;;;6.50;81.80;;;;;;5412296;26;20519;-74
2024/04/18 12:09:02;;;;;;;6.73;3.40;;;6.40;80.80;;;;;;5412982;26;20456;-74
2024/04/18 12:11:29;;;;;;;6.50;3.90;;;6.50;81.20;;;;;;5407470;26;21049;-75
2024/04/18 12:13:55;;;;;;;11.60;6.00;;;6.50;81.70;;;;;;5407784;26;20774;-75
2024/04/18 12:16:21;;;;;;;9.93;5.20;;;6.70;82.40;;;;;;5402534;26;21106;-75
2024/04/18 12:18:47;;;;;;;11.37;5.00;;;6.80;82.10;;;;;;5409091;26;20234;-75
2024/04/18 12:21:13;;;;;;;8.80;5.20;;;6.80;82.10;;;;;;5398547;26;20487;-76
2024/04/18 12:23:42;;;;;;;8.67;5.73;;;6.90;81.50;;;;;;5415219;26;20471;-74
2024/04/18 12:26:09;;;;;;;9.03;5.33;;;7.00;80.80;;;;;;5411689;26;20296;-74
2024/04/18 12:28:34;;;;;;;12.10;7.43;;;7.00;80.90;;;;;;5410479;26;20459;-75
2024/04/18 12:31:00;;;;;;;10.37;6.50;;;7.00;81.50;;;;;;5411933;26;20519;-75
2024/04/18 12:33:25;;;;;;;10.30;6.10;;;7.10;81.90;;;;;;5415720;26;20319;-76
2024/04/18 12:35:51;;;;;;;12.60;6.83;;;7.20;80.50;;;;;;5418665;26;20273;-74
2024/04/18 12:38:17;;;;;;;12.13;6.60;;;7.20;80.60;;;;;;5418178;26;20315;-76
2024/04/18 12:40:43;;;;;;;12.30;6.93;;;7.20;80.60;;;;;;5414725;26;20471;-74
2024/04/18 12:43:09;;;;;;;13.57;6.67;;;7.30;81.10;;;;;;5406161;26;20307;-76
2024/04/18 12:45:35;;;;;;;13.83;6.70;;;7.40;80.90;;;;;;5413295;26;20955;-73
2024/04/18 12:48:03;;;;;;;12.33;7.30;;;7.40;80.00;;;;;;5403092;26;20386;-75